Time;durP1;ratioP1;P1;durP2;ratioP2;P2;SDS_P1;SDS_P2;PMS_P1;PMS_P2;Temp;Humidity;BMP_temperature;BMP_pressure;BME280_temperature;BME280_humidity;BME280_pressure;Samples;Min_cycle;Max_cycle;Signal;HPM_P1;HPM_P2
2022/09/16 00:01:28;;;;;;;24.70;10.43;;;;;;;40.51;36.55;101233.78;5131485;27;20416;-78
2022/09/16 00:03:56;;;;;;;14.80;9.27;;;;;;;40.71;35.58;101237.84;5131695;27;20991;-78
2022/09/16 00:06:24;;;;;;;23.43;9.43;;;;;;;40.40;36.13;101241.41;5131205;27;20434;-76
2022/09/16 00:08:51;;;;;;;21.03;8.43;;;;;;;40.11;36.85;101239.19;5131012;27;20490;-76
2022/09/16 00:11:17;;;;;;;21.90;11.37;;;;;;;40.62;36.45;101239.72;5113893;28;20459;-76
2022/09/16 00:13:45;;;;;;;14.80;7.73;;;;;;;40.22;36.76;101231.59;5113817;28;20427;-75
2022/09/16 00:16:25;;;;;;;20.40;9.60;;;;;;;40.55;35.94;101232.03;5130769;27;20843;-76
2022/09/16 00:18:55;;;;;;;17.50;8.53;;;;;;;40.01;37.23;101234.00;5113794;28;20499;-78
2022/09/16 00:21:21;;;;;;;22.27;10.00;;;;;;;39.94;37.61;101233.66;5130927;27;20452;-77
2022/09/16 00:23:48;;;;;;;23.10;11.00;;;;;;;40.16;37.08;101230.13;5113677;28;21034;-77
2022/09/16 00:26:14;;;;;;;21.77;9.37;;;;;;;40.39;37.26;101225.38;5130672;27;20518;-77
2022/09/16 00:28:40;;;;;;;21.30;12.20;;;;;;;40.73;36.40;101213.84;5113356;28;20510;-76
2022/09/16 00:31:06;;;;;;;25.83;10.70;;;;;;;40.83;35.48;101218.19;5130218;27;20412;-75
2022/09/16 00:33:32;;;;;;;21.00;9.83;;;;;;;40.42;36.36;101219.34;5130890;27;20979;-76
2022/09/16 00:36:16;;;;;;;25.77;8.67;;;;;;;40.33;36.21;101227.47;5130512;27;20443;-76
2022/09/16 00:38:43;;;;;;;20.87;10.40;;;;;;;40.37;36.17;101212.13;5130758;27;20424;-76
2022/09/16 00:41:17;;;;;;;16.33;7.80;;;;;;;40.54;36.18;101211.41;5113363;28;20420;-76
2022/09/16 00:44:01;;;;;;;20.63;9.07;;;;;;;40.85;35.27;101203.13;5130499;27;20416;-76
2022/09/16 00:46:48;;;;;;;13.43;9.13;;;;;;;40.61;35.71;101197.34;5130261;27;20424;-76
2022/09/16 00:49:19;;;;;;;22.47;9.07;;;;;;;40.08;36.28;101190.91;5113103;28;20467;-76
2022/09/16 00:51:52;;;;;;;23.50;9.60;;;;;;;40.74;35.62;101190.97;5130413;27;20412;-76
2022/09/16 00:54:19;;;;;;;26.23;10.10;;;;;;;39.82;36.50;101192.66;5130235;27;20412;-76
2022/09/16 00:56:50;;;;;;;28.67;12.20;;;;;;;40.49;35.74;101187.09;5112949;28;20419;-78
2022/09/16 00:59:25;;;;;;;31.70;10.60;;;;;;;39.95;36.61;101199.94;5130110;27;20412;-77
2022/09/16 01:01:54;;;;;;;27.77;9.43;;;;;;;40.26;36.30;101189.06;5112868;28;20411;-77
2022/09/16 01:04:30;;;;;;;25.17;10.57;;;;;;;40.74;35.87;101186.31;5112882;28;20471;-76
2022/09/16 01:06:56;;;;;;;21.73;11.97;;;;;;;40.96;35.02;101185.41;5112661;28;20937;-76
2022/09/16 01:09:24;;;;;;;27.23;13.03;;;;;;;40.72;35.78;101185.06;5130045;27;20532;-76
2022/09/16 01:11:51;;;;;;;16.33;10.23;;;;;;;40.27;35.64;101186.03;5112612;28;20506;-75
2022/09/16 01:17:22;;;;;;;23.70;9.63;;;;;;;40.29;36.51;101193.88;5113947;28;21019;-75
2022/09/16 01:20:15;;;;;;;22.30;11.30;;;;;;;40.57;35.96;101180.06;5129988;27;20415;-76
2022/09/16 01:22:44;;;;;;;14.90;9.23;;;;;;;40.20;36.30;101180.25;5112724;28;20420;-75
2022/09/16 01:25:20;;;;;;;26.30;9.43;;;;;;;40.33;35.87;101175.00;5129575;27;20411;-76
2022/09/16 01:28:04;;;;;;;39.10;8.63;;;;;;;40.43;35.56;101191.03;5128712;27;20443;-76
2022/09/16 01:30:30;;;;;;;27.67;8.93;;;;;;;39.85;36.22;101179.28;5129282;27;20416;-76
2022/09/16 01:33:12;;;;;;;16.50;8.73;;;;;;;40.05;36.64;101174.44;5112295;28;20408;-76
2022/09/16 01:35:44;;;;;;;27.83;10.70;;;;;;;39.94;36.23;101168.44;5113988;28;20544;-76
2022/09/16 01:38:22;;;;;;;17.90;8.17;;;;;;;40.40;35.83;101173.44;5112541;28;20468;-76
2022/09/16 01:41:17;;;;;;;19.10;9.37;;;;;;;40.23;36.30;101163.31;5112152;28;20806;-76
2022/09/16 01:43:58;;;;;;;26.00;8.83;;;;;;;40.06;35.82;101165.97;5129503;27;20502;-76
2022/09/16 01:46:52;;;;;;;22.80;8.57;;;;;;;39.83;36.65;101161.69;5112060;28;20475;-76
2022/09/16 01:49:25;;;;;;;21.83;10.87;;;;;;;40.51;35.87;101152.22;5112128;28;20467;-76
2022/09/16 01:52:16;;;;;;;27.70;9.57;;;;;;;40.23;35.72;101140.78;5111955;28;20419;-76
2022/09/16 05:38:34;;;;;;;30.60;9.50;;;;;;;40.24;35.32;101238.28;6113117;22;2236082;-74
2022/09/16 05:41:01;;;;;;;12.67;7.23;;;;;;;39.70;36.28;101245.63;6153183;23;20703;-75
2022/09/16 05:43:29;;;;;;;21.53;9.50;;;;;;;40.40;35.23;101243.31;6152567;23;20420;-78
2022/09/16 05:45:55;;;;;;;18.67;10.97;;;;;;;40.49;36.03;101239.53;6153183;23;20396;-75
2022/09/16 05:48:23;;;;;;;20.23;8.27;;;;;;;40.26;35.81;101238.78;6149823;23;20385;-74
2022/09/16 05:50:53;;;;;;;21.80;7.80;;;;;;;40.14;36.27;101245.91;6150889;23;20386;-75
2022/09/16 05:53:19;;;;;;;21.97;9.30;;;;;;;40.02;35.80;101246.47;6152667;23;20374;-74
2022/09/16 05:56:03;;;;;;;12.90;8.10;;;;;;;40.30;34.97;101249.84;6154113;23;20364;-76
2022/09/16 05:58:31;;;;;;;28.03;9.60;;;;;;;40.11;35.42;101241.91;6152517;23;20520;-74
2022/09/16 06:00:58;;;;;;;26.57;8.60;;;;;;;40.43;34.98;101243.47;6152478;23;20480;-73
2022/09/16 06:03:26;;;;;;;15.37;9.83;;;;;;;40.06;36.04;101249.41;6152914;23;20407;-75
2022/09/16 06:05:58;;;;;;;24.20;11.07;;;;;;;39.81;36.68;101248.91;6153177;23;20384;-73
2022/09/16 06:08:24;;;;;;;21.70;10.93;;;;;;;39.37;38.12;101258.63;6153139;23;20377;-74
2022/09/16 06:10:50;;;;;;;19.70;10.13;;;;;;;39.71;37.04;101254.59;6151277;23;20427;-76
2022/09/16 06:13:18;;;;;;;19.53;9.67;;;;;;;39.73;37.11;101255.91;6153981;23;20440;-72
2022/09/16 06:15:53;;;;;;;17.13;8.97;;;;;;;39.65;37.63;101253.09;6151533;23;20384;-74
2022/09/16 06:18:20;;;;;;;17.27;10.57;;;;;;;39.58;37.39;101248.06;6152476;23;20403;-74
2022/09/16 06:20:47;;;;;;;16.37;7.83;;;;;;;39.65;36.97;101248.47;6127871;23;20447;-74
2022/09/16 06:23:13;;;;;;;20.90;9.53;;;;;;;39.46;37.22;101251.34;6152377;23;20377;-76
2022/09/16 06:25:39;;;;;;;21.00;11.43;;;;;;;39.90;36.76;101251.66;6153275;23;20440;-74
2022/09/16 06:28:06;;;;;;;29.70;11.40;;;;;;;40.06;36.69;101261.06;6153130;23;20385;-74
2022/09/16 06:30:32;;;;;;;20.83;10.83;;;;;;;39.76;37.05;101265.31;6151021;23;20373;-77
2022/09/16 06:32:58;;;;;;;26.70;9.53;;;;;;;39.93;36.76;101256.50;6153264;23;20399;-73
2022/09/16 06:35:24;;;;;;;25.50;10.20;;;;;;;40.26;35.15;101259.72;6153706;23;20889;-75
2022/09/16 06:37:50;;;;;;;24.03;8.37;;;;;;;40.27;35.10;101262.16;6152995;23;20415;-75
2022/09/16 06:40:16;;;;;;;23.53;9.70;;;;;;;40.46;35.60;101264.63;6149324;23;20444;-76
2022/09/16 06:42:42;;;;;;;25.93;12.07;;;;;;;40.41;35.99;101278.34;6151680;23;20849;-76
2022/09/16 06:45:08;;;;;;;23.60;8.83;;;;;;;39.72;37.35;101275.22;6151736;23;20783;-75
2022/09/16 06:47:34;;;;;;;17.33;9.00;;;;;;;39.42;37.66;101301.16;6154506;23;20408;-74
2022/09/16 06:50:01;;;;;;;11.83;6.60;;;;;;;38.78;38.53;101292.16;6128225;23;20385;-75
2022/09/16 06:52:27;;;;;;;16.93;7.83;;;;;;;39.82;36.66;101293.16;6153100;23;20737;-75
2022/09/16 06:54:53;;;;;;;17.00;8.47;;;;;;;40.15;35.86;101291.03;6153938;23;20452;-75
2022/09/16 06:57:22;;;;;;;20.73;8.80;;;;;;;39.63;36.90;101288.72;6106233;23;20384;-75
2022/09/16 06:59:51;;;;;;;23.43;9.17;;;;;;;39.46;37.08;101297.50;6130892;23;20429;-74
2022/09/16 07:02:18;;;;;;;14.77;7.60;;;;;;;39.35;36.96;101296.13;6154850;23;20385;-74
2022/09/16 07:04:45;;;;;;;16.20;8.40;;;;;;;39.14;37.26;101301.16;6152466;23;20385;-78
2022/09/16 07:07:12;;;;;;;16.23;7.97;;;;;;;39.78;35.39;101294.88;6153724;23;20388;-79
2022/09/16 07:09:39;;;;;;;14.93;8.13;;;;;;;40.08;34.89;101307.75;6154336;23;20716;-74
2022/09/16 07:12:06;;;;;;;18.23;6.80;;;;;;;40.19;34.27;101302.84;6154585;23;20415;-72
2022/09/16 07:14:32;;;;;;;14.30;6.30;;;;;;;40.34;34.26;101307.09;6156288;23;20361;-75
2022/09/16 07:16:59;;;;;;;16.70;7.23;;;;;;;40.45;33.97;101311.13;6153900;23;20437;-75
2022/09/16 07:19:25;;;;;;;22.10;8.70;;;;;;;40.54;34.59;101310.09;6152798;23;20431;-78
2022/09/16 07:21:53;;;;;;;19.27;9.77;;;;;;;40.39;34.79;101320.53;6154068;23;20405;-79
2022/09/16 07:24:20;;;;;;;19.53;7.83;;;;;;;40.43;35.39;101319.59;6154902;23;20386;-78
2022/09/16 07:26:46;;;;;;;19.63;8.30;;;;;;;40.39;35.26;101328.69;6153852;23;20392;-79
2022/09/16 07:29:16;;;;;;;20.73;8.67;;;;;;;40.79;35.00;101330.34;6153536;23;20389;-80
2022/09/16 07:31:42;;;;;;;22.97;7.67;;;;;;;40.92;34.67;101338.72;6154134;23;20472;-79
2022/09/16 07:34:10;;;;;;;11.97;7.47;;;;;;;41.06;33.98;101336.69;6153599;23;20439;-80
2022/09/16 07:36:42;;;;;;;16.37;9.03;;;;;;;41.18;33.17;101338.78;6152971;23;20441;-80
2022/09/16 07:39:10;;;;;;;15.00;7.10;;;;;;;40.92;33.35;101355.84;6153800;23;20437;-80
2022/09/16 07:41:39;;;;;;;11.23;7.00;;;;;;;40.88;32.85;101348.59;6153818;23;20777;-77
2022/09/16 07:44:13;;;;;;;13.97;8.77;;;;;;;40.78;33.82;101366.03;6154456;23;20437;-81
2022/09/16 07:46:41;;;;;;;18.57;8.07;;;;;;;40.67;34.16;101368.22;6153888;23;20443;-81
2022/09/16 07:49:11;;;;;;;19.20;8.70;;;;;;;40.71;34.14;101363.75;6155582;23;20400;-79
2022/09/16 07:51:44;;;;;;;33.97;9.80;;;;;;;40.43;34.37;101362.31;6154406;23;20409;-83
2022/09/16 07:54:16;;;;;;;25.50;8.57;;;;;;;39.97;35.18;101364.25;6157263;23;20379;-85
2022/09/16 07:56:45;;;;;;;17.57;7.33;;;;;;;39.59;35.62;101360.19;6155995;23;20877;-78
2022/09/16 07:59:15;;;;;;;21.93;8.70;;;;;;;39.60;35.82;101368.09;6154182;23;20405;-77
2022/09/16 08:01:41;;;;;;;15.23;7.90;;;;;;;40.17;35.63;101373.84;6154187;23;20861;-77
2022/09/16 08:04:07;;;;;;;16.13;8.00;;;;;;;40.36;34.38;101378.25;6154286;23;20397;-77
2022/09/16 08:06:38;;;;;;;18.80;6.47;;;;;;;40.50;33.72;101384.44;6156017;23;20393;-78
2022/09/16 08:09:04;;;;;;;18.87;9.43;;;;;;;40.80;33.61;101380.91;6154135;23;20381;-74
2022/09/16 08:11:30;;;;;;;31.40;9.57;;;;;;;40.62;33.97;101376.50;6154199;23;20381;-73
2022/09/16 08:14:00;;;;;;;13.33;7.10;;;;;;;40.61;34.13;101379.53;6154107;23;20405;-73
2022/09/16 08:16:27;;;;;;;14.70;7.00;;;;;;;40.48;33.96;101379.31;6154184;23;20472;-75
2022/09/16 08:18:56;;;;;;;23.30;9.13;;;;;;;40.03;34.68;101382.03;6154083;23;20381;-75
2022/09/16 08:21:25;;;;;;;14.77;7.77;;;;;;;39.58;35.13;101391.97;6154024;23;20408;-73
2022/09/16 08:23:51;;;;;;;18.90;9.90;;;;;;;39.61;35.05;101391.41;6156010;23;20428;-73
2022/09/16 08:26:18;;;;;;;16.87;8.70;;;;;;;39.37;35.05;101390.81;6154092;23;20405;-74
2022/09/16 08:28:47;;;;;;;21.33;9.10;;;;;;;39.69;34.72;101393.41;6129483;23;20456;-74
2022/09/16 08:31:14;;;;;;;19.00;9.40;;;;;;;39.84;33.97;101392.28;6155610;23;20353;-74
2022/09/16 08:33:41;;;;;;;14.17;9.00;;;;;;;40.45;33.05;101395.41;6154238;23;20400;-75
2022/09/16 08:36:14;;;;;;;16.83;8.13;;;;;;;39.88;33.65;101404.09;6129708;23;20435;-75
2022/09/16 08:38:41;;;;;;;12.80;6.80;;;;;;;40.56;32.83;101404.94;6152593;23;20457;-73
2022/09/16 08:41:34;;;;;;;22.30;7.67;;;;;;;39.85;33.92;101403.94;6126088;23;20434;-75
2022/09/16 08:44:29;;;;;;;10.60;6.50;;;;;;;40.44;33.64;101412.84;6124459;23;20533;-75
2022/09/16 08:47:18;;;;;;;19.40;9.70;;;;;;;39.89;33.97;101408.41;6126359;23;20379;-73
2022/09/16 08:49:49;;;;;;;22.33;7.97;;;;;;;40.37;33.25;101409.78;6102572;23;20354;-73
2022/09/16 08:52:31;;;;;;;22.10;10.17;;;;;;;40.70;32.64;101405.69;6099995;23;20437;-73
2022/09/16 08:55:23;;;;;;;14.30;7.60;;;;;;;41.21;32.20;101406.22;6099695;23;20409;-75
2022/09/16 08:58:01;;;;;;;24.70;8.10;;;;;;;40.97;33.01;101391.09;6099883;23;20378;-76
2022/09/16 09:00:27;;;;;;;20.20;7.63;;;;;;;41.50;32.63;101397.50;6076589;23;20414;-76
2022/09/16 09:02:54;;;;;;;17.10;10.20;;;;;;;41.73;32.23;101396.22;6124326;23;20410;-75
2022/09/16 09:05:49;;;;;;;19.03;9.00;;;;;;;41.88;32.52;101394.97;6099660;23;20728;-75
2022/09/16 09:08:39;;;;;;;10.63;6.87;;;;;;;41.93;32.81;101391.28;6099714;23;20386;-74
2022/09/16 09:11:49;;;;;;;23.77;10.50;;;;;;;41.72;33.02;101391.09;6126137;23;20351;-73
2022/09/16 09:14:18;;;;;;;15.73;8.93;;;;;;;41.93;33.05;101394.81;6089857;23;20394;-73
2022/09/16 09:17:03;;;;;;;24.23;8.50;;;;;;;41.72;33.65;101397.34;6124141;23;20445;-73
2022/09/16 09:20:00;;;;;;;13.97;7.50;;;;;;;41.77;33.71;101410.84;6099364;23;20456;-74
2022/09/16 09:22:35;;;;;;;15.47;8.47;;;;;;;41.93;33.41;101399.44;6123985;23;20386;-72
2022/09/16 09:25:37;;;;;;;29.60;9.53;;;;;;;41.74;33.53;101406.03;6125993;23;20377;-73
2022/09/16 09:28:12;;;;;;;21.37;8.40;;;;;;;41.75;33.00;101409.56;6126209;23;20365;-73
2022/09/16 09:30:51;;;;;;;15.30;6.60;;;;;;;41.65;32.77;101399.75;6125797;23;20352;-73
2022/09/16 09:33:35;;;;;;;20.23;9.10;;;;;;;41.55;33.01;101398.13;6124102;23;20439;-72
2022/09/16 09:36:31;;;;;;;18.40;7.90;;;;;;;42.11;32.25;101399.13;6124056;23;20385;-73
2022/09/16 09:39:11;;;;;;;20.03;9.20;;;;;;;41.75;32.86;101395.94;6104428;23;21068;-73
2022/09/16 09:41:46;;;;;;;25.10;10.40;;;;;;;41.78;33.22;101404.25;6153482;23;20401;-73
2022/09/16 09:44:30;;;;;;;27.90;9.00;;;;;;;41.68;33.41;101401.00;6153432;23;20408;-73
2022/09/16 09:47:02;;;;;;;12.63;6.83;;;;;;;41.17;34.53;101397.88;6153378;23;20443;-75
2022/09/16 09:49:34;;;;;;;18.63;7.30;;;;;;;41.48;33.80;101397.00;6153350;23;20385;-76
2022/09/16 09:52:25;;;;;;;24.97;11.27;;;;;;;41.67;33.31;101393.97;6153330;23;20412;-74
2022/09/16 09:54:51;;;;;;;19.17;7.37;;;;;;;41.42;33.56;101393.63;6153287;23;20728;-74
2022/09/16 09:57:32;;;;;;;18.80;7.37;;;;;;;41.36;33.87;101405.00;6153274;23;20769;-77
2022/09/16 10:00:09;;;;;;;11.00;5.90;;;;;;;40.05;35.42;101398.03;6153199;23;20474;-73
2022/09/16 10:02:39;;;;;;;18.93;7.13;;;;;;;39.76;35.10;101382.13;6153356;23;20384;-78
2022/09/16 10:05:13;;;;;;;11.90;7.13;;;;;;;39.84;35.54;101392.28;6153283;23;20389;-74
2022/09/16 10:07:39;;;;;;;15.33;8.20;;;;;;;39.55;35.30;101399.94;6152733;23;20384;-79
2022/09/16 10:10:15;;;;;;;11.27;5.70;;;;;;;39.43;35.10;101387.69;6153176;23;20382;-79
2022/09/16 10:12:42;;;;;;;15.60;7.30;;;;;;;39.13;35.69;101394.53;6153201;23;20858;-78
2022/09/16 10:15:27;;;;;;;18.97;6.83;;;;;;;39.37;35.19;101386.19;6153440;23;20389;-77
2022/09/16 10:17:55;;;;;;;26.70;8.40;;;;;;;40.27;34.07;101380.94;6153374;23;20404;-77
2022/09/16 10:20:32;;;;;;;12.50;5.70;;;;;;;40.38;34.17;101384.19;6128709;23;20424;-74
2022/09/16 10:23:20;;;;;;;16.03;8.33;;;;;;;40.86;33.24;101383.50;6155220;23;20388;-75
2022/09/16 10:25:46;;;;;;;19.43;8.33;;;;;;;40.89;32.67;101375.50;6154922;23;20396;-77
2022/09/16 10:28:24;;;;;;;10.07;6.73;;;;;;;41.21;32.07;101376.28;6157233;23;20357;-73
2022/09/16 10:30:59;;;;;;;13.10;5.90;;;;;;;41.48;31.75;101370.56;6130776;23;20467;-73
2022/09/16 10:33:28;;;;;;;12.97;8.60;;;;;;;41.19;32.66;101370.31;6155138;23;20438;-73
2022/09/16 10:36:02;;;;;;;17.50;9.77;;;;;;;40.84;33.72;101367.50;6154941;23;20816;-73
2022/09/16 10:38:48;;;;;;;11.30;6.50;;;;;;;41.26;33.03;101357.88;6156912;23;20921;-74
2022/09/16 10:41:18;;;;;;;18.80;8.13;;;;;;;41.47;33.09;101351.84;6155002;23;20432;-73
2022/09/16 10:44:12;;;;;;;18.57;7.93;;;;;;;41.50;33.06;101352.00;6131129;23;20777;-73
2022/09/16 10:47:11;;;;;;;24.53;9.33;;;;;;;41.39;33.21;101356.16;6154813;23;20838;-73
2022/09/16 10:49:45;;;;;;;20.80;7.37;;;;;;;41.66;32.84;101341.41;6154313;23;20884;-73
2022/09/16 10:52:17;;;;;;;14.47;6.27;;;;;;;41.16;32.99;101344.56;6156891;23;20460;-73
2022/09/16 10:54:44;;;;;;;11.57;6.33;;;;;;;41.51;33.04;101340.00;6156387;23;20872;-73
2022/09/16 10:57:24;;;;;;;19.03;6.07;;;;;;;41.55;33.09;101334.69;6154846;23;20380;-74
2022/09/16 11:00:13;;;;;;;13.97;5.90;;;;;;;41.00;33.64;101337.94;6154640;23;20421;-75
2022/09/16 11:03:13;;;;;;;25.07;8.80;;;;;;;41.10;33.00;101337.66;6154850;23;20384;-75
2022/09/16 11:06:14;;;;;;;15.20;6.40;;;;;;;41.34;33.22;101332.59;6154683;23;20382;-75
2022/09/16 11:08:49;;;;;;;11.33;6.23;;;;;;;40.97;33.12;101331.22;6156811;23;20353;-75
2022/09/16 11:11:50;;;;;;;14.17;6.93;;;;;;;41.93;32.03;101323.13;6154751;23;20384;-75
2022/09/16 11:14:24;;;;;;;12.10;6.20;;;;;;;41.72;32.47;101323.00;6154718;23;20409;-73
2022/09/16 11:17:13;;;;;;;14.40;6.27;;;;;;;41.86;32.20;101323.63;6154783;23;20391;-73
2022/09/16 11:19:43;;;;;;;8.77;6.17;;;;;;;41.68;33.22;101320.13;6112584;23;20491;-75
2022/09/16 11:22:21;;;;;;;16.60;8.47;;;;;;;42.20;32.31;101319.28;6154794;23;20401;-75
2022/09/16 11:24:51;;;;;;;21.77;8.57;;;;;;;42.33;32.34;101319.06;6154672;23;20384;-75
2022/09/16 11:27:41;;;;;;;22.93;9.43;;;;;;;41.93;32.74;101310.34;6154575;23;20401;-75
2022/09/16 11:30:20;;;;;;;16.23;8.60;;;;;;;41.78;33.66;101322.53;6156723;23;20349;-75
2022/09/16 11:32:55;;;;;;;19.30;8.20;;;;;;;41.44;34.17;101312.44;6154293;23;20475;-75
2022/09/16 11:36:02;;;;;;;22.00;8.43;;;;;;;41.08;34.15;101315.41;6154634;23;20436;-75
2022/09/16 11:38:49;;;;;;;9.83;5.50;;;;;;;40.78;34.56;101315.16;6156477;23;20350;-75
2022/09/16 11:41:39;;;;;;;21.10;6.77;;;;;;;40.88;34.26;101305.06;6154381;23;20436;-75
2022/09/16 11:44:22;;;;;;;12.97;6.93;;;;;;;40.84;34.37;101323.16;6154456;23;20381;-75
2022/09/16 11:47:15;;;;;;;23.07;6.63;;;;;;;40.49;35.51;101307.50;6154504;23;20377;-75
2022/09/16 11:50:07;;;;;;;12.23;6.13;;;;;;;40.20;35.68;101302.53;6156307;23;20363;-75
2022/09/16 11:53:06;;;;;;;15.63;6.13;;;;;;;40.91;34.31;101304.50;6154452;23;20377;-75
2022/09/16 11:55:35;;;;;;;22.30;7.80;;;;;;;40.87;34.06;101295.31;6156330;23;20718;-75
2022/09/16 11:58:33;;;;;;;12.10;6.80;;;;;;;40.94;34.53;101295.69;6156158;23;20833;-76
2022/09/16 12:01:09;;;;;;;12.73;7.10;;;;;;;40.78;34.86;101303.47;6136759;23;20483;-75
2022/09/16 12:03:47;;;;;;;18.43;7.03;;;;;;;41.22;34.07;101288.84;6154262;23;20458;-75
2022/09/16 12:06:20;;;;;;;11.03;5.13;;;;;;;40.71;34.58;101293.03;6154207;23;20411;-72
2022/09/16 12:08:59;;;;;;;15.70;7.10;;;;;;;41.51;33.09;101290.16;6154589;23;20841;-73
2022/09/16 12:11:43;;;;;;;13.70;9.00;;;;;;;41.61;33.96;101281.66;6154244;23;20471;-73
2022/09/16 12:14:19;;;;;;;17.80;8.37;;;;;;;41.83;33.34;101291.59;6154247;23;20400;-73
2022/09/16 12:17:07;;;;;;;32.40;7.77;;;;;;;40.98;34.80;101285.78;6156524;23;20355;-73
2022/09/16 12:19:41;;;;;;;12.93;6.20;;;;;;;41.39;33.55;101279.13;6155757;23;20427;-74
2022/09/16 12:22:09;;;;;;;9.80;5.80;;;;;;;41.32;34.20;101274.97;6154143;23;20397;-73
2022/09/16 12:24:52;;;;;;;10.17;5.97;;;;;;;40.91;34.30;101274.56;6154071;23;20413;-73
2022/09/16 12:27:29;;;;;;;12.40;6.37;;;;;;;40.71;34.46;101265.84;6153959;23;20389;-73
2022/09/16 12:30:15;;;;;;;10.83;5.70;;;;;;;40.53;34.88;101261.47;6154025;23;20435;-73
2022/09/16 12:32:45;;;;;;;18.23;8.20;;;;;;;40.93;34.31;101256.00;6153879;23;20870;-73
2022/09/16 12:35:19;;;;;;;12.63;5.80;;;;;;;40.53;34.09;101248.69;6156080;23;20401;-73
2022/09/16 12:37:51;;;;;;;19.73;6.97;;;;;;;40.77;34.03;101250.19;6153905;23;20483;-72
2022/09/16 12:40:24;;;;;;;19.50;8.80;;;;;;;40.69;34.32;101253.66;6153611;23;20472;-73
2022/09/16 12:42:58;;;;;;;14.47;7.67;;;;;;;41.20;33.68;101244.81;6155678;23;20373;-72
2022/09/16 12:45:42;;;;;;;15.40;7.60;;;;;;;41.38;33.36;101237.47;6155668;23;20356;-73
2022/09/16 12:48:26;;;;;;;14.73;6.87;;;;;;;40.99;34.04;101243.84;6153529;23;20444;-73
2022/09/16 12:51:36;;;;;;;19.77;6.73;;;;;;;40.85;34.54;101224.09;6153809;23;20381;-73
2022/09/16 12:54:21;;;;;;;21.93;8.80;;;;;;;40.48;34.64;101229.78;6145779;23;20866;-72
2022/09/16 12:56:46;;;;;;;15.10;7.70;;;;;;;41.04;33.92;101230.88;6155506;23;20389;-75
2022/09/16 12:59:16;;;;;;;21.43;8.17;;;;;;;41.27;33.72;101219.84;6153561;23;20450;-75
2022/09/16 13:01:57;;;;;;;17.33;7.93;;;;;;;41.26;33.31;101216.31;6153691;23;20385;-75
2022/09/16 13:04:34;;;;;;;22.07;10.20;;;;;;;41.01;34.00;101206.25;6153643;23;20752;-75
2022/09/16 13:07:00;;;;;;;15.00;6.43;;;;;;;40.94;33.41;101219.50;6155685;23;20349;-74
2022/09/16 13:09:46;;;;;;;21.83;7.43;;;;;;;40.99;33.99;101208.47;6153711;23;20384;-75
2022/09/16 13:12:26;;;;;;;12.43;5.87;;;;;;;41.30;32.66;101203.66;6153682;23;20385;-74
2022/09/16 13:15:02;;;;;;;17.60;7.40;;;;;;;41.37;32.63;101200.47;6153632;23;20392;-75
2022/09/16 13:17:37;;;;;;;15.60;8.90;;;;;;;41.44;32.40;101195.34;6155472;23;20441;-73
2022/09/16 13:20:17;;;;;;;14.07;7.37;;;;;;;41.43;32.25;101191.00;6153576;23;20424;-73
2022/09/16 13:23:04;;;;;;;14.53;6.20;;;;;;;41.91;31.63;101191.88;6153437;23;20381;-73
2022/09/16 13:25:51;;;;;;;22.20;5.27;;;;;;;41.48;31.80;101179.94;6153608;23;20384;-73
2022/09/16 13:28:31;;;;;;;20.63;7.73;;;;;;;41.91;31.53;101175.53;6153341;23;20409;-75
2022/09/16 13:31:13;;;;;;;12.63;6.30;;;;;;;42.36;30.78;101173.13;6153432;23;20377;-75
2022/09/16 13:33:47;;;;;;;18.13;6.60;;;;;;;42.00;31.26;101176.31;6153432;23;20417;-73
2022/09/16 13:36:19;;;;;;;15.30;6.13;;;;;;;42.27;30.76;101161.44;6153534;23;20385;-73
2022/09/16 13:39:00;;;;;;;15.13;7.77;;;;;;;42.70;30.03;101153.00;6151102;23;20519;-72
2022/09/16 13:41:32;;;;;;;11.37;5.90;;;;;;;43.05;30.09;101160.94;6125830;23;20445;-74
2022/09/16 13:43:58;;;;;;;13.57;6.60;;;;;;;42.72;30.02;101164.38;6125800;23;20350;-74
2022/09/16 13:46:30;;;;;;;16.13;8.07;;;;;;;42.52;30.21;101163.22;6096557;23;20960;-73
2022/09/16 13:49:09;;;;;;;19.13;6.23;;;;;;;42.70;30.47;101158.47;6121899;23;20366;-73
2022/09/16 13:51:45;;;;;;;12.60;7.07;;;;;;;42.20;31.11;101151.06;6122893;23;20397;-74
2022/09/16 13:54:37;;;;;;;14.33;7.37;;;;;;;42.86;30.37;101148.53;6098989;23;20456;-77
2022/09/16 13:57:24;;;;;;;10.37;6.27;;;;;;;42.77;30.07;101158.72;6098698;23;20731;-73
2022/09/16 13:59:57;;;;;;;20.80;6.70;;;;;;;42.80;30.43;101158.06;6123423;23;20492;-72
2022/09/16 14:02:53;;;;;;;12.10;6.10;;;;;;;42.88;30.36;101153.66;6123432;23;20782;-73
2022/09/16 14:05:53;;;;;;;28.37;7.60;;;;;;;42.74;30.71;101144.97;6099234;23;20370;-75
2022/09/16 14:08:34;;;;;;;12.43;7.20;;;;;;;43.51;29.49;101148.91;6098352;23;20921;-72
2022/09/16 14:11:19;;;;;;;10.97;5.93;;;;;;;43.34;29.13;101138.97;6099218;23;20866;-73
2022/09/16 14:13:53;;;;;;;17.60;7.23;;;;;;;42.82;29.36;101135.91;6098513;23;20432;-72
2022/09/16 14:16:23;;;;;;;23.10;7.73;;;;;;;43.19;29.20;101132.19;6074238;23;20439;-73
2022/09/16 14:18:59;;;;;;;12.20;7.00;;;;;;;42.94;29.11;101135.94;6122574;23;20382;-74
2022/09/16 14:21:25;;;;;;;10.37;6.17;;;;;;;43.32;28.42;101135.75;6124600;23;20810;-73
2022/09/16 14:23:52;;;;;;;21.40;5.83;;;;;;;43.62;28.13;101133.69;6123522;23;20420;-73
2022/09/16 14:26:23;;;;;;;11.63;6.37;;;;;;;42.92;29.13;101121.84;6123681;23;20382;-73
2022/09/16 14:28:49;;;;;;;13.07;6.73;;;;;;;43.51;28.55;101107.16;6123586;23;20738;-73
2022/09/16 14:31:20;;;;;;;10.50;5.90;;;;;;;43.37;28.94;101119.16;6125390;23;20401;-73
2022/09/16 14:33:59;;;;;;;10.50;5.93;;;;;;;44.02;28.13;101108.44;6099197;23;20381;-72
2022/09/16 14:36:29;;;;;;;10.27;6.00;;;;;;;43.95;28.03;101117.22;6123671;23;20421;-73
2022/09/16 14:39:07;;;;;;;14.37;8.60;;;;;;;44.08;28.12;101119.97;6099098;23;20410;-73
2022/09/16 14:41:47;;;;;;;13.23;8.17;;;;;;;43.89;28.58;101117.78;6125054;23;20925;-74
2022/09/16 14:44:19;;;;;;;14.17;6.90;;;;;;;43.69;28.50;101114.78;6125535;23;20389;-73
2022/09/16 14:46:59;;;;;;;20.17;8.03;;;;;;;43.41;28.99;101101.00;6099372;23;20378;-73
2022/09/16 14:49:25;;;;;;;15.47;6.80;;;;;;;43.50;29.04;101105.56;6099432;23;20374;-73
2022/09/16 14:51:56;;;;;;;15.70;7.60;;;;;;;43.69;29.04;101108.53;6123610;23;20843;-73
2022/09/16 14:54:25;;;;;;;14.10;7.70;;;;;;;43.55;28.91;101106.13;6099309;23;20449;-73
2022/09/16 14:57:22;;;;;;;20.70;8.83;;;;;;;43.04;29.71;101104.75;6121919;23;20465;-74
2022/09/16 14:59:51;;;;;;;11.40;7.43;;;;;;;43.53;29.50;101093.97;6099270;23;20435;-73
2022/09/16 15:02:23;;;;;;;17.43;7.50;;;;;;;43.29;29.31;101098.22;6125574;23;20401;-73
2022/09/16 15:05:18;;;;;;;13.50;6.93;;;;;;;43.15;29.71;101100.44;6123855;23;20402;-73
2022/09/16 15:07:46;;;;;;;8.27;5.27;;;;;;;43.55;28.75;101095.22;6096337;23;20866;-74
2022/09/16 15:10:22;;;;;;;16.70;7.07;;;;;;;43.24;29.64;101086.72;6125507;23;20385;-74
2022/09/16 15:13:01;;;;;;;13.30;6.00;;;;;;;43.41;29.42;101089.28;6077197;23;20477;-74
2022/09/16 15:15:34;;;;;;;13.93;6.50;;;;;;;43.99;29.17;101090.00;6126677;23;20369;-74
2022/09/16 15:18:08;;;;;;;22.60;8.40;;;;;;;44.02;28.78;101092.06;6125031;23;20386;-75
2022/09/16 15:20:38;;;;;;;15.97;7.70;;;;;;;43.77;28.96;101091.25;6125319;23;20908;-75
2022/09/16 15:23:07;;;;;;;20.43;9.93;;;;;;;44.15;28.41;101085.41;6125478;23;20464;-75
2022/09/16 15:25:36;;;;;;;14.83;6.87;;;;;;;44.40;28.24;101079.91;6127119;23;20385;-73
2022/09/16 15:28:20;;;;;;;16.60;7.90;;;;;;;43.90;28.72;101078.41;6125288;23;20390;-73
2022/09/16 15:30:49;;;;;;;20.47;9.00;;;;;;;44.04;29.36;101075.31;6125236;23;20389;-71
2022/09/16 15:33:36;;;;;;;13.50;7.33;;;;;;;44.51;27.68;101072.81;6100820;23;20402;-73
2022/09/16 15:36:03;;;;;;;15.53;8.17;;;;;;;44.73;27.57;101075.03;6125205;23;20390;-73
2022/09/16 15:38:30;;;;;;;14.53;7.10;;;;;;;44.64;27.86;101079.06;6100146;23;20779;-73
2022/09/16 15:41:11;;;;;;;23.83;7.53;;;;;;;45.46;26.88;101075.78;6152174;23;21009;-71